Hagshult, Sweden

12:58 AM CEST on July 24, 2016 (GMT +0200)
Värnamo | | Change Station

Elev 515 ft 57.20 °N, 14.04 °E | Updated 8 minutes ago

Clear
Clear
67.2 °F
Feels Like 67.2 °F
N
0.0
Wind Variable Wind from SSW
Gusts 1.0 mph

Today
High -- | Low -- °F
--% Chance of Precip.
Yesterday
High -- | Low -- °F
Precip. -- in
Pressure 30.12 in
Visibility 6.2 miles
Clouds
Dew Point 60 °F
Humidity 77%
Rainfall 0.00 in
Snow Depth Not available.
4:45 AM 9:33 PM
Waning Gibbous, 82% visible
METAR ESGJ 232250Z AUTO 00000KT 9999 NCD 15/11 Q1020
Pressure 30.12 in
Visibility 6.2 miles
Clouds
Dew Point 60 °F
Humidity 77%
Rainfall 0.00 in
Snow Depth Not available.
4:45 AM 9:33 PM
Waning Gibbous, 82% visible
METAR ESGJ 232250Z AUTO 00000KT 9999 NCD 15/11 Q1020

10-Day Weather Forecast

×

Almanac

Astronomy

Jul. 24, 2016 Rise Set
Actual Time
Civil Twilight
Nautical Twilight
Astronomical Twilight
Moon
Length of Visible Light
Length of Day
Tomorrow will be .
, % of the Moon is Illuminated

Today's Extremes

Country Highs Country Lows

Community

WunderPhotos

Upload Photos

1,926,950 photos uploaded!

WunderBlog® & News

Nearby

Air Quality

  Air Quality AQ Index Pollutant
Not available.

Snow Depth

Station Depth Elevation

Earthquake Activity

City Distance Mag. Time & Date
Minimum magnitude displayed is 2.5.

Coastal Water Temperatures

Place Temperature

Stations

Nearby Weather Stations

Station Location Temp. Windchill Dew Point Humidity Wind Precip. Elev Updated Type